Time;durP1;ratioP1;P1;durP2;ratioP2;P2;SDS_P1;SDS_P2;PMS_P1;PMS_P2;Temp;Humidity;BMP_temperature;BMP_pressure;BME280_temperature;BME280_humidity;BME280_pressure;Samples;Min_cycle;Max_cycle;Signal;HPM_P1;HPM_P2
2022/12/05 00:00:56;;;;;;;55.40;24.05;;;;;;;2.59;100.00;101818.75;5052062;28;20040;-39
2022/12/05 00:03:22;;;;;;;59.20;24.50;;;;;;;2.62;100.00;101824.69;5061055;28;20055;-38
2022/12/05 00:05:47;;;;;;;53.33;22.55;;;;;;;2.62;100.00;101818.53;5070674;28;20464;-39
2022/12/05 00:08:12;;;;;;;61.28;23.30;;;;;;;2.65;100.00;101823.63;5070567;28;20021;-40
2022/12/05 00:10:38;;;;;;;52.38;24.33;;;;;;;2.66;100.00;101822.69;5070793;28;20119;-38
2022/12/05 00:13:04;;;;;;;57.25;23.45;;;;;;;2.67;100.00;101816.41;5067919;28;20019;-39
2022/12/05 00:15:29;;;;;;;59.10;23.38;;;;;;;2.68;100.00;101818.09;5070499;28;20439;-39
2022/12/05 00:17:54;;;;;;;52.00;22.63;;;;;;;2.69;100.00;101825.13;5070259;28;20017;-40
2022/12/05 00:20:20;;;;;;;60.45;25.02;;;;;;;2.70;100.00;101821.50;5065799;28;20048;-38
2022/12/05 00:22:45;;;;;;;55.83;22.90;;;;;;;2.70;100.00;101818.84;5048496;28;20684;-37
2022/12/05 00:25:11;;;;;;;57.42;22.88;;;;;;;2.71;100.00;101817.88;5050027;28;20029;-38
2022/12/05 00:27:36;;;;;;;52.72;23.08;;;;;;;2.76;100.00;101817.56;5048818;28;20124;-37
2022/12/05 00:30:01;;;;;;;56.60;23.90;;;;;;;2.78;100.00;101823.63;5055602;28;20021;-38
2022/12/05 00:32:28;;;;;;;50.30;23.98;;;;;;;2.76;100.00;101820.22;5063242;28;20024;-39
2022/12/05 00:34:53;;;;;;;54.75;22.45;;;;;;;2.77;100.00;101812.16;5050084;28;20122;-37
2022/12/05 00:37:19;;;;;;;55.45;21.88;;;;;;;2.81;100.00;101818.94;5055382;28;20491;-37
2022/12/05 00:39:44;;;;;;;55.92;22.17;;;;;;;2.84;100.00;101818.75;5069202;28;20028;-39
2022/12/05 00:42:09;;;;;;;51.80;21.60;;;;;;;2.86;100.00;101816.81;5070191;28;20027;-39
2022/12/05 00:44:35;;;;;;;52.63;21.90;;;;;;;2.91;100.00;101824.47;5064118;28;20028;-36
2022/12/05 00:47:00;;;;;;;48.42;20.75;;;;;;;2.94;100.00;101818.06;5051134;28;20064;-39
2022/12/05 00:49:25;;;;;;;49.15;21.33;;;;;;;2.95;100.00;101819.75;5065521;28;20862;-39
2022/12/05 00:51:51;;;;;;;50.38;20.98;;;;;;;2.95;100.00;101817.09;5058582;28;20531;-40
2022/12/05 00:54:16;;;;;;;44.90;20.95;;;;;;;2.97;100.00;101817.84;5070956;28;20032;-36
2022/12/05 00:56:43;;;;;;;45.95;20.52;;;;;;;3.00;100.00;101823.81;5072963;28;20099;-39
2022/12/05 00:59:13;;;;;;;48.03;20.98;;;;;;;3.00;100.00;101807.00;5073596;28;20364;-37
2022/12/05 01:01:40;;;;;;;47.55;20.48;;;;;;;3.01;100.00;101816.69;5055098;28;20045;-39
2022/12/05 01:04:11;;;;;;;51.60;22.38;;;;;;;2.97;100.00;101818.69;5054155;28;20430;-37
2022/12/05 01:06:37;;;;;;;43.22;19.80;;;;;;;3.05;100.00;101820.81;5053518;28;20044;-37
2022/12/05 01:09:03;;;;;;;49.80;22.77;;;;;;;3.03;100.00;101817.44;5067205;28;20033;-37
2022/12/05 01:11:29;;;;;;;47.70;21.60;;;;;;;3.08;100.00;101826.78;5054772;28;20032;-37
2022/12/05 01:13:55;;;;;;;45.83;20.25;;;;;;;3.09;100.00;101819.66;5053104;28;20112;-39
2022/12/05 01:16:24;;;;;;;50.17;20.50;;;;;;;3.13;100.00;101821.13;5070184;28;20037;-39
2022/12/05 01:18:50;;;;;;;46.45;20.25;;;;;;;3.13;100.00;101821.13;5073223;28;20036;-38
2022/12/05 01:21:16;;;;;;;48.10;20.77;;;;;;;3.16;100.00;101823.59;5040509;28;20037;-37
2022/12/05 01:23:42;;;;;;;44.65;18.65;;;;;;;3.16;100.00;101820.06;5053201;28;20024;-40
2022/12/05 01:26:11;;;;;;;48.88;21.52;;;;;;;3.10;100.00;101813.38;5051612;28;20056;-37
2022/12/05 01:28:37;;;;;;;45.13;18.90;;;;;;;3.14;100.00;101820.19;5072198;28;20032;-37
2022/12/05 01:31:05;;;;;;;49.08;20.48;;;;;;;3.18;100.00;101815.47;5058097;28;20348;-40
2022/12/05 01:33:31;;;;;;;51.80;20.58;;;;;;;3.17;100.00;101819.09;5055738;28;20170;-38
2022/12/05 01:35:56;;;;;;;50.50;19.85;;;;;;;3.14;100.00;101817.53;5065940;28;20108;-38
2022/12/05 01:38:22;;;;;;;46.28;19.27;;;;;;;3.17;100.00;101809.31;5063408;28;20086;-38
2022/12/05 01:40:47;;;;;;;50.67;20.63;;;;;;;3.16;100.00;101822.72;5062620;28;20031;-39
2022/12/05 01:43:15;;;;;;;52.38;20.15;;;;;;;3.18;100.00;101811.00;5062770;28;20056;-37
2022/12/05 01:45:42;;;;;;;51.95;20.45;;;;;;;3.18;100.00;101820.78;5051984;28;20025;-38
2022/12/05 01:48:18;;;;;;;46.25;20.77;;;;;;;3.14;100.00;101830.81;5052351;28;20097;-37
2022/12/05 01:50:44;;;;;;;44.35;20.15;;;;;;;3.20;100.00;101830.38;5059366;28;20027;-38
2022/12/05 01:53:10;;;;;;;50.28;21.02;;;;;;;3.20;100.00;101827.72;5069758;28;20040;-38
2022/12/05 01:55:36;;;;;;;48.75;20.65;;;;;;;3.22;100.00;101835.59;5060314;28;20025;-40
2022/12/05 01:58:02;;;;;;;49.95;20.08;;;;;;;3.21;100.00;101826.78;5062753;28;20039;-39
2022/12/05 02:00:28;;;;;;;51.67;21.75;;;;;;;3.21;100.00;101826.78;5064019;28;20116;-40
2022/12/05 02:02:57;;;;;;;49.25;20.63;;;;;;;3.23;100.00;101827.47;5070376;28;20115;-39
2022/12/05 02:05:31;;;;;;;50.60;21.33;;;;;;;3.21;100.00;101832.09;5071636;28;20036;-39
2022/12/05 02:07:57;;;;;;;49.58;21.33;;;;;;;3.25;100.00;101836.22;5069064;28;20025;-37
2022/12/05 02:10:23;;;;;;;50.70;21.55;;;;;;;3.20;100.00;101830.38;5062062;28;20031;-38
2022/12/05 02:12:49;;;;;;;50.97;20.05;;;;;;;3.23;100.00;101827.47;5052575;28;20031;-36
2022/12/05 02:15:42;;;;;;;51.70;20.75;;;;;;;3.26;100.00;101837.06;5072216;28;20499;-37
2022/12/05 02:18:25;;;;;;;53.35;22.55;;;;;;;3.26;100.00;101829.91;5062708;28;20025;-36
2022/12/05 02:21:05;;;;;;;52.60;23.25;;;;;;;3.24;100.00;101837.19;5036029;28;20120;-38
2022/12/05 02:23:46;;;;;;;51.78;22.48;;;;;;;3.28;100.00;101836.00;5063682;28;20056;-37
2022/12/05 02:26:20;;;;;;;53.95;23.08;;;;;;;3.32;100.00;101833.09;5061175;28;20052;-38
2022/12/05 02:29:02;;;;;;;49.33;21.63;;;;;;;3.34;100.00;101836.50;5072346;28;20040;-38
2022/12/05 02:31:34;;;;;;;53.00;21.27;;;;;;;3.30;100.00;101835.88;5058382;28;20102;-38
2022/12/05 02:34:15;;;;;;;54.17;21.73;;;;;;;3.29;100.00;101829.72;5068210;28;20060;-38
2022/12/05 02:36:44;;;;;;;57.63;22.17;;;;;;;3.34;100.00;101839.16;5069321;28;20028;-39
2022/12/05 02:39:41;;;;;;;;;;;;;;;3.29;100.00;101834.16;5072215;28;20082;-38
2022/12/05 02:42:15;;;;;;;49.58;20.73;;;;;;;3.26;100.00;101824.59;5050324;28;19966;-38
2022/12/05 02:44:45;;;;;;;47.53;21.15;;;;;;;3.25;100.00;101832.72;5062879;28;20048;-39
2022/12/05 02:47:11;;;;;;;51.72;21.67;;;;;;;3.29;100.00;101834.16;5055301;28;20021;-37
2022/12/05 02:49:39;;;;;;;56.17;23.38;;;;;;;3.24;100.00;101831.88;5064405;28;20036;-37
2022/12/05 02:52:07;;;;;;;58.13;23.63;;;;;;;3.25;100.00;101838.88;5071491;28;20028;-38
2022/12/05 02:54:36;;;;;;;51.63;21.48;;;;;;;3.29;100.00;101847.47;5070176;28;20055;-38
2022/12/05 02:57:03;;;;;;;54.45;22.35;;;;;;;3.32;100.00;101849.94;5071449;28;20021;-37
2022/12/05 02:59:28;;;;;;;52.72;22.08;;;;;;;3.30;100.00;101842.06;5067908;28;20040;-38
2022/12/05 03:01:54;;;;;;;53.03;22.75;;;;;;;3.28;100.00;101849.28;5069780;28;20062;-38
2022/12/05 03:04:21;;;;;;;53.88;22.75;;;;;;;3.32;100.00;101854.38;5053566;28;20037;-39
2022/12/05 03:06:59;;;;;;;51.83;22.30;;;;;;;3.33;100.00;101856.09;5034691;28;20021;-37
2022/12/05 03:09:41;;;;;;;51.40;21.33;;;;;;;3.36;100.00;101855.88;5050279;28;20278;-37
2022/12/05 03:12:14;;;;;;;52.08;21.48;;;;;;;3.36;100.00;101854.06;5071227;28;20029;-37
2022/12/05 03:14:46;;;;;;;56.78;22.85;;;;;;;3.32;100.00;101844.63;5069831;28;20063;-37
2022/12/05 03:17:17;;;;;;;50.15;21.10;;;;;;;3.33;100.00;101846.31;5070802;28;20494;-39
2022/12/05 03:20:06;;;;;;;51.25;21.20;;;;;;;3.29;100.00;101851.00;5065843;28;20044;-37
2022/12/05 03:22:36;;;;;;;49.10;20.40;;;;;;;3.27;100.00;101847.59;5069501;28;20028;-37
2022/12/05 03:25:01;;;;;;;48.85;21.25;;;;;;;3.29;100.00;101845.69;5069740;28;20071;-38
2022/12/05 03:27:40;;;;;;;48.80;20.80;;;;;;;3.32;100.00;101849.06;5068742;28;20080;-40
2022/12/05 03:30:11;;;;;;;49.58;20.92;;;;;;;3.29;100.00;101847.47;5068965;28;20032;-39
2022/12/05 03:32:39;;;;;;;57.47;22.15;;;;;;;3.25;100.00;101854.84;5059278;28;20373;-38
2022/12/05 03:35:14;;;;;;;;;;;;;;;3.28;100.00;101848.44;5051550;28;20036;-40
2022/12/05 03:38:00;;;;;;;48.85;20.13;;;;;;;3.28;100.00;101859.94;5058815;28;19920;-38
2022/12/05 03:40:42;;;;;;;47.13;20.00;;;;;;;3.25;100.00;101859.31;5052609;28;20123;-37
2022/12/05 03:43:12;;;;;;;48.13;19.70;;;;;;;3.29;100.00;101866.09;5050682;28;20025;-38
2022/12/05 03:45:48;;;;;;;48.08;19.98;;;;;;;3.27;100.00;101858.25;5067960;28;20059;-38
2022/12/05 03:48:19;;;;;;;54.00;21.27;;;;;;;3.28;100.00;101870.56;5069142;28;20043;-37
2022/12/05 03:50:46;;;;;;;53.80;20.65;;;;;;;3.30;100.00;101871.31;5063538;28;20040;-37
2022/12/05 03:53:20;;;;;;;59.83;20.75;;;;;;;3.28;100.00;101867.91;5060551;28;20440;-40
2022/12/05 03:55:47;;;;;;;53.92;21.23;;;;;;;3.32;100.00;101867.69;5060873;28;20529;-39
2022/12/05 03:58:28;;;;;;;46.30;19.65;;;;;;;3.30;100.00;101866.00;5070651;28;20031;-37
2022/12/05 04:00:54;;;;;;;58.75;21.00;;;;;;;3.36;100.00;101874.50;5058596;28;20074;-37
2022/12/05 04:03:23;;;;;;;55.80;20.80;;;;;;;3.35;100.00;101870.16;5049278;28;20028;-39
2022/12/05 04:05:54;;;;;;;53.28;21.10;;;;;;;3.37;100.00;101870.88;5064257;28;20032;-39
2022/12/05 04:08:27;;;;;;;49.35;21.42;;;;;;;3.42;100.00;101868.72;5069061;28;20062;-39
2022/12/05 04:10:55;;;;;;;52.22;20.10;;;;;;;3.41;100.00;101867.03;5059751;28;20025;-41
2022/12/05 04:13:29;;;;;;;54.50;22.52;;;;;;;3.41;100.00;101864.38;5049069;28;20047;-37
2022/12/05 04:18:53;;;;;;;53.90;21.45;;;;;;;3.44;100.00;101875.66;5059861;28;20460;-39
2022/12/05 04:27:11;;;;;;;56.83;21.83;;;;;;;3.46;100.00;101878.22;5050754;28;20598;-37
2022/12/05 04:29:45;;;;;;;53.30;21.65;;;;;;;3.51;100.00;101881.41;5051135;28;20083;-40
2022/12/05 04:32:12;;;;;;;52.13;20.40;;;;;;;3.48;100.00;101876.28;5067152;28;20033;-38
2022/12/05 04:34:39;;;;;;;50.47;20.35;;;;;;;3.52;100.00;101877.75;5070077;28;20083;-38
2022/12/05 04:37:10;;;;;;;51.17;21.27;;;;;;;3.54;100.00;101875.00;5070234;28;20029;-39
2022/12/05 04:39:41;;;;;;;49.30;19.65;;;;;;;3.57;100.00;101872.13;5069043;28;20059;-39
2022/12/05 04:42:09;;;;;;;48.72;19.88;;;;;;;3.59;100.00;101873.69;5065560;28;20090;-39
2022/12/05 04:44:43;;;;;;;;;;;;;;;3.60;100.00;101875.38;5050233;28;20082;-36
2022/12/05 04:47:10;;;;;;;45.78;18.38;;;;;;;3.56;100.00;101868.59;5078773;28;20267;-40
2022/12/05 04:49:35;;;;;;;44.47;19.45;;;;;;;3.58;100.00;101871.13;5065174;28;20029;-39
2022/12/05 04:52:04;;;;;;;48.63;20.65;;;;;;;3.60;100.00;101864.75;5069022;28;20025;-38
2022/12/05 04:54:59;;;;;;;45.40;20.08;;;;;;;3.62;100.00;101878.78;5062899;28;20028;-39
2022/12/05 04:57:28;;;;;;;47.03;18.80;;;;;;;3.65;100.00;101870.59;5050175;28;20032;-38
2022/12/05 04:59:53;;;;;;;48.67;19.40;;;;;;;3.67;100.00;101875.81;5050305;28;20025;-39
2022/12/05 05:02:26;;;;;;;42.65;19.48;;;;;;;3.68;100.00;101873.00;5053077;28;20375;-36
2022/12/05 05:04:54;;;;;;;46.90;19.92;;;;;;;3.67;100.00;101876.66;5055839;28;20035;-40
2022/12/05 05:07:19;;;;;;;45.67;19.77;;;;;;;3.69;100.00;101874.75;5061511;28;20029;-38
2022/12/05 05:09:45;;;;;;;46.53;20.52;;;;;;;3.72;100.00;101879.84;5061646;28;20490;-39
2022/12/05 05:12:11;;;;;;;47.90;18.90;;;;;;;3.76;100.00;101876.94;5051428;28;20135;-36
2022/12/05 05:14:36;;;;;;;48.53;20.17;;;;;;;3.72;100.00;101874.50;5059864;28;20029;-37
2022/12/05 05:17:01;;;;;;;46.88;19.88;;;;;;;3.77;100.00;101876.00;5048851;28;20116;-38
2022/12/05 05:19:27;;;;;;;45.65;19.83;;;;;;;3.74;100.00;101872.59;5055328;28;20090;-39
2022/12/05 05:21:52;;;;;;;44.08;19.92;;;;;;;3.79;100.00;101882.03;5050256;28;20086;-37
2022/12/05 05:24:20;;;;;;;46.55;20.63;;;;;;;3.80;100.00;101876.63;5050467;28;20029;-37
2022/12/05 05:26:45;;;;;;;48.03;20.17;;;;;;;3.83;100.00;101878.19;5049941;28;20076;-39
2022/12/05 05:29:12;;;;;;;48.95;20.40;;;;;;;3.84;100.00;101878.06;5048085;28;20065;-37
2022/12/05 05:31:38;;;;;;;50.45;20.52;;;;;;;3.86;100.00;101877.97;5065135;28;20024;-38
2022/12/05 05:34:04;;;;;;;48.53;20.27;;;;;;;3.89;100.00;101881.25;5085550;28;20114;-38
2022/12/05 05:36:29;;;;;;;41.60;18.58;;;;;;;3.89;100.00;101885.72;5069076;28;20120;-37
2022/12/05 05:38:56;;;;;;;48.53;19.33;;;;;;;3.90;100.00;101882.97;5049654;28;20083;-39
2022/12/05 05:41:23;;;;;;;46.17;19.05;;;;;;;3.95;100.00;101882.63;5060554;28;20139;-38
2022/12/05 05:43:49;;;;;;;49.47;21.25;;;;;;;3.97;100.00;101888.69;5056581;28;20340;-40
2022/12/05 05:46:18;;;;;;;50.47;20.75;;;;;;;3.97;100.00;101888.69;5066338;28;20343;-40
2022/12/05 05:48:43;;;;;;;40.28;18.05;;;;;;;4.01;100.00;101884.84;5070892;28;20052;-38
2022/12/05 05:51:13;;;;;;;42.80;19.38;;;;;;;4.03;100.00;101893.56;5061200;28;20048;-40
2022/12/05 05:53:38;;;;;;;41.80;19.35;;;;;;;4.03;100.00;101896.22;5060952;28;20472;-40
2022/12/05 05:56:06;;;;;;;47.58;19.42;;;;;;;4.01;100.00;101900.81;5068217;28;20070;-39
2022/12/05 05:58:31;;;;;;;43.72;21.20;;;;;;;3.99;100.00;101897.41;5072976;28;20486;-39
2022/12/05 06:01:14;;;;;;;45.55;20.10;;;;;;;4.02;100.00;101902.50;5068725;28;20021;-37
2022/12/05 06:03:39;;;;;;;42.45;19.73;;;;;;;4.10;100.00;101900.13;5037226;28;20029;-40
2022/12/05 06:06:07;;;;;;;45.05;19.73;;;;;;;4.08;100.00;101896.75;5060184;28;20075;-41
2022/12/05 06:08:36;;;;;;;49.08;20.77;;;;;;;4.09;100.00;101897.59;5051448;28;20040;-38
2022/12/05 06:11:10;;;;;;;49.25;21.35;;;;;;;4.07;100.00;101895.03;5052832;28;20103;-37
2022/12/05 06:13:35;;;;;;;47.13;21.30;;;;;;;4.06;100.00;101892.50;5056105;28;20392;-40
2022/12/05 06:16:01;;;;;;;41.97;19.95;;;;;;;4.10;100.00;101897.47;5068326;28;20027;-37
2022/12/05 06:18:26;;;;;;;45.75;20.33;;;;;;;4.12;100.00;101887.53;5052584;28;20032;-40
2022/12/05 06:20:52;;;;;;;44.97;20.15;;;;;;;4.15;100.00;101889.13;5053759;28;20024;-38
2022/12/05 06:23:18;;;;;;;51.85;20.70;;;;;;;4.18;100.00;101896.88;5064176;28;20367;-40
2022/12/05 06:25:51;;;;;;;43.88;19.33;;;;;;;4.20;100.00;101896.78;5053536;28;20063;-38
2022/12/05 06:28:17;;;;;;;51.70;19.77;;;;;;;4.20;100.00;101896.78;5050227;28;20036;-37
2022/12/05 06:30:43;;;;;;;48.40;20.55;;;;;;;4.17;100.00;101896.03;5054324;28;20424;-40
2022/12/05 06:33:08;;;;;;;46.75;20.40;;;;;;;4.20;100.00;101904.78;5052495;28;20047;-40
2022/12/05 06:35:34;;;;;;;52.22;21.92;;;;;;;4.18;100.00;101903.06;5063294;28;20028;-38
2022/12/05 06:37:59;;;;;;;50.28;20.73;;;;;;;4.17;100.00;101905.84;5051869;28;20119;-40
2022/12/05 06:40:24;;;;;;;49.30;20.85;;;;;;;4.17;100.00;101906.69;5055244;28;20097;-40
2022/12/05 06:42:50;;;;;;;55.35;21.77;;;;;;;4.17;100.00;101905.84;5067260;28;20119;-38
2022/12/05 06:45:15;;;;;;;47.90;19.55;;;;;;;4.26;100.00;101909.63;5063296;28;20032;-39
2022/12/05 06:47:41;;;;;;;48.40;21.33;;;;;;;4.27;100.00;101906.03;5064813;28;20476;-39
2022/12/05 06:50:07;;;;;;;56.17;21.52;;;;;;;4.27;100.00;101917.53;5066559;28;20032;-38
2022/12/05 06:52:32;;;;;;;49.38;20.42;;;;;;;4.30;100.00;101916.47;5070565;28;20032;-40
2022/12/05 06:54:58;;;;;;;48.53;20.88;;;;;;;4.34;100.00;101912.56;5069871;28;20036;-38
2022/12/05 06:57:24;;;;;;;46.70;19.90;;;;;;;4.38;100.00;101916.72;5055505;28;20029;-39
2022/12/05 06:59:49;;;;;;;50.30;21.20;;;;;;;4.37;100.00;101913.22;5064521;28;20032;-38
2022/12/05 07:02:14;;;;;;;46.17;20.83;;;;;;;4.41;100.00;101913.81;5055297;28;20029;-37
2022/12/05 07:04:40;;;;;;;46.75;20.33;;;;;;;4.40;100.00;101925.47;5052988;28;20017;-39
2022/12/05 07:07:05;;;;;;;47.13;19.15;;;;;;;4.41;100.00;101927.16;5067313;28;20025;-40
2022/12/05 07:09:47;;;;;;;47.35;20.00;;;;;;;4.35;100.00;101925.81;5069027;28;20029;-41
2022/12/05 07:12:14;;;;;;;45.85;20.17;;;;;;;4.37;100.00;101934.53;5070406;28;20067;-38
2022/12/05 07:14:40;;;;;;;45.65;20.35;;;;;;;4.43;100.00;101922.56;5071153;28;20033;-42
2022/12/05 07:17:06;;;;;;;45.15;19.20;;;;;;;4.44;100.00;101926.06;5054262;28;20035;-39
2022/12/05 07:19:31;;;;;;;42.88;19.98;;;;;;;4.45;100.00;101933.09;5070773;28;20086;-38
2022/12/05 07:21:56;;;;;;;40.92;18.60;;;;;;;4.40;100.00;101934.31;5069606;28;20025;-37
2022/12/05 07:24:22;;;;;;;44.58;19.35;;;;;;;4.42;100.00;101934.16;5071141;28;20056;-39
2022/12/05 07:26:47;;;;;;;44.50;20.15;;;;;;;4.49;100.00;101937.25;5070964;28;20383;-37
2022/12/05 07:29:13;;;;;;;39.55;17.65;;;;;;;4.48;100.00;101941.72;5070986;28;20103;-38
2022/12/05 07:31:38;;;;;;;35.70;17.73;;;;;;;4.47;100.00;101934.69;5070737;28;20114;-38
2022/12/05 07:34:03;;;;;;;35.95;17.60;;;;;;;4.51;100.00;101944.16;5055415;28;20083;-37
2022/12/05 07:36:29;;;;;;;38.03;18.08;;;;;;;4.48;100.00;101941.72;5050983;28;20025;-38
2022/12/05 07:38:56;;;;;;;34.35;17.23;;;;;;;4.50;100.00;101941.59;5065587;28;20110;-39
2022/12/05 07:41:26;;;;;;;36.92;16.52;;;;;;;4.55;100.00;101945.63;5050470;28;20051;-39
2022/12/05 07:43:54;;;;;;;34.30;16.55;;;;;;;4.59;100.00;101947.09;5050783;28;20070;-41
2022/12/05 07:46:19;;;;;;;31.55;16.65;;;;;;;4.64;100.00;101957.41;5051241;28;20444;-38
2022/12/05 07:48:46;;;;;;;35.08;17.20;;;;;;;4.59;100.00;101955.09;5050970;28;20028;-39
2022/12/05 07:51:11;;;;;;;34.35;15.50;;;;;;;4.59;100.00;101949.75;5050799;28;20117;-39
2022/12/05 07:53:38;;;;;;;32.75;15.93;;;;;;;4.57;100.00;101949.03;5050934;28;20112;-40
2022/12/05 07:56:05;;;;;;;32.35;15.30;;;;;;;4.60;100.00;101945.28;5050575;28;20083;-38
2022/12/05 07:58:32;;;;;;;29.03;14.77;;;;;;;4.62;100.00;101949.53;5051272;28;20087;-40
2022/12/05 08:01:08;;;;;;;27.60;15.05;;;;;;;4.65;100.00;101963.59;5050807;28;20510;-41
2022/12/05 08:03:36;;;;;;;24.58;13.05;;;;;;;4.67;100.00;101959.00;5050513;28;20363;-38
2022/12/05 08:06:09;;;;;;;28.17;14.55;;;;;;;4.69;100.00;101962.41;5050638;28;20107;-38
2022/12/05 08:08:35;;;;;;;24.60;13.93;;;;;;;4.72;100.00;101959.50;5050818;28;20124;-40
2022/12/05 08:11:21;;;;;;;30.98;14.38;;;;;;;4.71;100.00;101957.78;5050353;28;20436;-39
2022/12/05 08:13:46;;;;;;;27.13;14.27;;;;;;;4.73;100.00;101961.19;5048842;28;20104;-39
2022/12/05 08:16:14;;;;;;;26.92;13.85;;;;;;;4.74;100.00;101962.88;5050464;28;20392;-39
2022/12/05 08:18:40;;;;;;;25.70;14.40;;;;;;;4.75;100.00;101959.28;5050743;28;20025;-40
2022/12/05 08:21:09;;;;;;;21.15;12.50;;;;;;;4.78;100.00;101962.53;5049982;28;20033;-37
2022/12/05 08:23:35;;;;;;;22.77;12.63;;;;;;;4.78;100.00;101965.22;5061114;28;20062;-37
2022/12/05 08:26:09;;;;;;;23.80;13.48;;;;;;;4.83;100.00;101964.88;5068482;28;20044;-39
2022/12/05 08:28:35;;;;;;;25.75;13.73;;;;;;;4.80;100.00;101962.44;5070246;28;20021;-38
2022/12/05 08:31:11;;;;;;;25.90;12.63;;;;;;;4.83;100.00;101967.53;5070407;28;20425;-37
2022/12/05 08:33:36;;;;;;;22.58;12.35;;;;;;;4.84;100.00;101969.22;5070531;28;20060;-41
2022/12/05 08:36:04;;;;;;;22.90;11.98;;;;;;;4.86;100.00;101969.97;5070227;28;20397;-38
2022/12/05 08:38:29;;;;;;;22.35;11.85;;;;;;;4.87;100.00;101979.69;5069024;28;20040;-40
2022/12/05 08:40:55;;;;;;;23.77;12.48;;;;;;;4.86;100.00;101975.31;5069832;28;20024;-39
2022/12/05 08:43:20;;;;;;;22.40;11.43;;;;;;;4.90;100.00;101982.13;5068861;28;20036;-39
2022/12/05 08:45:50;;;;;;;23.25;11.98;;;;;;;4.93;100.00;101984.53;5070068;28;20025;-37
2022/12/05 08:48:15;;;;;;;21.52;11.35;;;;;;;4.91;100.00;101983.81;5068809;28;20036;-40
2022/12/05 08:50:41;;;;;;;19.45;10.98;;;;;;;4.94;100.00;101986.22;5070200;28;20032;-39
2022/12/05 08:53:06;;;;;;;19.10;11.57;;;;;;;4.92;100.00;101980.16;5070756;28;20083;-41
2022/12/05 08:55:33;;;;;;;18.85;10.73;;;;;;;4.90;100.00;101987.44;5069961;28;20036;-39
2022/12/05 08:57:59;;;;;;;16.85;11.15;;;;;;;4.92;100.00;101987.31;5069941;28;20032;-38
2022/12/05 09:00:24;;;;;;;20.92;10.77;;;;;;;4.95;100.00;101998.63;5069749;28;20028;-38
2022/12/05 09:02:53;;;;;;;19.13;11.27;;;;;;;4.99;100.00;101997.41;5070093;28;20094;-37
2022/12/05 09:05:18;;;;;;;20.55;10.13;;;;;;;5.02;100.00;101999.00;5070041;28;20028;-39
2022/12/05 09:07:43;;;;;;;17.00;9.95;;;;;;;5.02;100.00;102002.50;5070066;28;20028;-40
2022/12/05 09:10:09;;;;;;;16.23;9.68;;;;;;;5.01;100.00;101999.97;5070627;28;20120;-40
2022/12/05 09:12:36;;;;;;;13.27;9.15;;;;;;;5.00;100.00;101998.25;5066588;28;20423;-38
2022/12/05 09:15:01;;;;;;;19.33;9.57;;;;;;;5.04;100.00;101997.91;5050058;28;20438;-40
2022/12/05 09:17:26;;;;;;;14.90;9.48;;;;;;;5.07;100.00;101996.81;5052574;28;20025;-38
2022/12/05 09:19:52;;;;;;;15.90;8.80;;;;;;;5.05;100.00;102004.09;5054079;28;20025;-37
2022/12/05 09:22:17;;;;;;;16.80;10.02;;;;;;;5.07;100.00;102007.50;5053455;28;20029;-39
2022/12/05 09:24:42;;;;;;;13.00;8.55;;;;;;;5.11;100.00;102008.09;5053281;28;20043;-38
2022/12/05 09:27:08;;;;;;;13.38;8.73;;;;;;;5.10;100.00;102006.41;5052965;28;20191;-40
2022/12/05 09:29:33;;;;;;;14.48;7.97;;;;;;;5.09;100.00;102015.41;5053245;28;20041;-39
2022/12/05 09:31:58;;;;;;;14.70;8.88;;;;;;;5.11;100.00;102010.75;5053194;28;20108;-38
2022/12/05 09:34:24;;;;;;;13.93;8.15;;;;;;;5.07;100.00;102008.34;5053083;28;20108;-37
2022/12/05 09:36:51;;;;;;;16.77;8.68;;;;;;;5.15;100.00;102009.56;5053111;28;20368;-38
2022/12/05 09:39:16;;;;;;;12.27;7.63;;;;;;;5.11;100.00;102019.66;5051981;28;20029;-38
2022/12/05 09:42:04;;;;;;;11.68;7.68;;;;;;;5.18;100.00;102014.66;5051669;28;20395;-40
2022/12/05 09:44:42;;;;;;;14.82;8.55;;;;;;;5.17;100.00;102018.31;5055065;28;20029;-38
2022/12/05 09:47:30;;;;;;;13.10;7.55;;;;;;;5.13;100.00;102028.34;5071668;28;20119;-40
2022/12/05 09:50:07;;;;;;;8.82;6.70;;;;;;;5.18;100.00;102030.69;5071584;28;20059;-40
2022/12/05 09:52:36;;;;;;;13.53;7.57;;;;;;;5.18;100.00;102025.34;5073575;28;20391;-39
2022/12/05 09:55:08;;;;;;;13.23;7.90;;;;;;;5.18;100.00;102030.69;5071807;28;20270;-39
2022/12/05 09:57:37;;;;;;;12.10;8.40;;;;;;;5.21;100.00;102030.44;5071395;28;20062;-39
2022/12/05 10:00:05;;;;;;;11.38;7.40;;;;;;;5.20;100.00;102028.75;5071567;28;20020;-39
2022/12/05 10:02:33;;;;;;;11.90;7.43;;;;;;;5.21;100.00;102027.78;5069709;28;20052;-39
2022/12/05 10:05:01;;;;;;;;;;;;;;;5.21;100.00;102031.31;5053146;28;20086;-39
2022/12/05 10:07:39;;;;;;;10.75;7.50;;;;;;;5.24;100.00;102030.22;5034904;28;19915;-40
2022/12/05 10:10:34;;;;;;;13.98;8.32;;;;;;;5.22;100.00;102024.16;5052136;28;20050;-37
2022/12/05 10:13:23;;;;;;;16.30;8.48;;;;;;;5.26;100.00;102025.59;5051899;28;20397;-38
2022/12/05 10:15:54;;;;;;;13.90;7.97;;;;;;;5.24;100.00;102031.06;5053719;28;20033;-38
2022/12/05 10:18:33;;;;;;;18.08;8.23;;;;;;;5.27;100.00;102019.31;5053179;28;20036;-38
2022/12/05 10:21:08;;;;;;;14.50;7.95;;;;;;;5.26;100.00;102029.13;5034983;28;20059;-41
2022/12/05 10:24:02;;;;;;;14.98;8.02;;;;;;;5.27;100.00;102020.16;5051190;28;20094;-39
2022/12/05 10:26:49;;;;;;;14.10;8.48;;;;;;;5.28;100.00;102023.66;5052861;28;20102;-40
2022/12/05 10:29:20;;;;;;;14.60;8.80;;;;;;;5.30;100.00;102031.56;5050917;28;20098;-38
2022/12/05 10:31:47;;;;;;;13.75;8.43;;;;;;;5.32;100.00;102033.16;5052438;28;20229;-38
2022/12/05 10:34:37;;;;;;;15.85;8.32;;;;;;;5.32;100.00;102022.47;5050726;28;20036;-38
2022/12/05 10:37:13;;;;;;;12.63;8.05;;;;;;;5.32;100.00;102027.81;5050863;28;20028;-41
2022/12/05 10:39:39;;;;;;;15.43;8.68;;;;;;;5.38;100.00;102032.69;5050573;28;20053;-40
2022/12/05 10:42:05;;;;;;;15.13;9.25;;;;;;;5.37;100.00;102031.00;5052174;28;20507;-41
2022/12/05 10:44:32;;;;;;;12.00;8.95;;;;;;;5.37;100.00;102022.97;5052030;28;20032;-41
2022/12/05 10:46:58;;;;;;;14.02;9.00;;;;;;;5.40;100.00;102030.75;5050728;28;20040;-39
2022/12/05 10:49:23;;;;;;;15.10;8.88;;;;;;;5.41;100.00;102029.75;5051886;28;20029;-37
2022/12/05 10:51:49;;;;;;;15.50;9.60;;;;;;;5.42;100.00;102028.78;5050647;28;20427;-38
2022/12/05 10:54:20;;;;;;;15.52;8.52;;;;;;;5.43;100.00;102019.81;5051587;28;20041;-39
2022/12/05 10:56:48;;;;;;;18.25;9.90;;;;;;;5.41;100.00;102021.75;5050866;28;20101;-39
2022/12/05 10:59:26;;;;;;;13.95;9.00;;;;;;;5.42;100.00;102023.44;5052842;28;20036;-38
2022/12/05 11:01:56;;;;;;;15.23;7.93;;;;;;;5.37;100.00;102025.66;5050912;28;20394;-37
2022/12/05 11:04:29;;;;;;;15.07;8.93;;;;;;;5.38;100.00;102026.50;5050599;28;20483;-37
2022/12/05 11:06:56;;;;;;;16.75;9.13;;;;;;;5.43;100.00;102027.84;5050625;28;20061;-39
2022/12/05 11:09:24;;;;;;;14.02;8.40;;;;;;;5.38;100.00;102022.00;5050467;28;20532;-40
2022/12/05 11:12:19;;;;;;;14.40;9.07;;;;;;;5.43;100.00;102019.81;5033754;28;20040;-40
2022/12/05 11:15:21;;;;;;;16.73;8.20;;;;;;;5.39;100.00;102022.84;5051637;28;20072;-38
2022/12/05 11:17:48;;;;;;;11.77;8.55;;;;;;;5.42;100.00;102018.09;5050335;28;20013;-40
2022/12/05 11:20:19;;;;;;;15.73;8.80;;;;;;;5.43;100.00;102019.81;5051822;28;20468;-39
2022/12/05 11:22:49;;;;;;;14.60;9.00;;;;;;;5.45;100.00;102011.66;5052419;28;20104;-39
2022/12/05 11:25:27;;;;;;;13.55;8.93;;;;;;;5.42;100.00;102023.44;5050378;28;20108;-39
2022/12/05 11:27:53;;;;;;;13.68;8.15;;;;;;;5.40;100.00;102019.22;5052045;28;20484;-37
2022/12/05 11:30:21;;;;;;;13.63;8.48;;;;;;;5.43;100.00;102025.16;5051440;28;20127;-39